sensor_id;sensor_type;location;lat;lon;timestamp;P1;durP1;ratioP1;P2;durP2;ratioP2
15502;SDS011;7853;52.186;5.948;2022-10-01T09:17:03;4.12;;;1.77;;
15502;SDS011;7853;52.186;5.948;2022-10-01T09:18:20;10.33;;;1.87;;
15502;SDS011;7853;52.186;5.948;2022-10-01T09:19:23;3.57;;;1.57;;
15502;SDS011;7853;52.186;5.948;2022-10-01T09:20:22;2.09;;;1.60;;
15502;SDS011;7853;52.186;5.948;2022-10-01T09:21:23;3.76;;;1.48;;
15502;SDS011;7853;52.186;5.948;2022-10-01T09:22:24;4.27;;;1.63;;
15502;SDS011;7853;52.186;5.948;2022-10-01T09:23:25;3.99;;;1.46;;
15502;SDS011;7853;52.186;5.948;2022-10-01T09:24:28;2.63;;;1.40;;
15502;SDS011;7853;52.186;5.948;2022-10-01T09:25:25;3.25;;;1.39;;
15502;SDS011;7853;52.186;5.948;2022-10-01T09:26:26;3.36;;;1.61;;
15502;SDS011;7853;52.186;5.948;2022-10-01T09:27:26;2.43;;;1.52;;
15502;SDS011;7853;52.186;5.948;2022-10-01T09:28:27;3.32;;;1.51;;
15502;SDS011;7853;52.186;5.948;2022-10-01T09:29:31;3.10;;;1.47;;
15502;SDS011;7853;52.186;5.948;2022-10-01T09:30:29;3.45;;;1.42;;
15502;SDS011;7853;52.186;5.948;2022-10-01T09:31:32;3.63;;;1.59;;
15502;SDS011;7853;52.186;5.948;2022-10-01T09:32:34;4.25;;;1.54;;
15502;SDS011;7853;52.186;5.948;2022-10-01T09:33:32;3.22;;;1.44;;
15502;SDS011;7853;52.186;5.948;2022-10-01T09:34:33;4.03;;;1.51;;
15502;SDS011;7853;52.186;5.948;2022-10-01T09:35:34;3.78;;;1.37;;
15502;SDS011;7853;52.186;5.948;2022-10-01T09:36:35;4.14;;;1.54;;
15502;SDS011;7853;52.186;5.948;2022-10-01T09:37:36;2.95;;;1.55;;
15502;SDS011;7853;52.186;5.948;2022-10-01T09:38:37;2.66;;;1.51;;
15502;SDS011;7853;52.186;5.948;2022-10-01T09:39:37;3.36;;;1.62;;
15502;SDS011;7853;52.186;5.948;2022-10-01T09:40:37;3.61;;;1.39;;
15502;SDS011;7853;52.186;5.948;2022-10-01T09:41:38;3.29;;;1.69;;
15502;SDS011;7853;52.186;5.948;2022-10-01T09:42:38;2.46;;;1.70;;
15502;SDS011;7853;52.186;5.948;2022-10-01T09:43:39;2.44;;;1.40;;
15502;SDS011;7853;52.186;5.948;2022-10-01T09:44:39;3.60;;;1.36;;
15502;SDS011;7853;52.186;5.948;2022-10-01T09:45:40;4.70;;;1.58;;
15502;SDS011;7853;52.186;5.948;2022-10-01T09:46:40;2.54;;;1.52;;
15502;SDS011;7853;52.186;5.948;2022-10-01T09:47:40;2.28;;;1.55;;
15502;SDS011;7853;52.186;5.948;2022-10-01T09:48:41;2.44;;;1.47;;
15502;SDS011;7853;52.186;5.948;2022-10-01T09:49:42;2.30;;;1.62;;
15502;SDS011;7853;52.186;5.948;2022-10-01T09:50:43;2.64;;;1.53;;
15502;SDS011;7853;52.186;5.948;2022-10-01T09:51:43;2.86;;;1.70;;
15502;SDS011;7853;52.186;5.948;2022-10-01T09:52:43;4.54;;;1.56;;
15502;SDS011;7853;52.186;5.948;2022-10-01T09:53:44;3.30;;;1.55;;
15502;SDS011;7853;52.186;5.948;2022-10-01T09:54:44;3.17;;;1.47;;
15502;SDS011;7853;52.186;5.948;2022-10-01T09:55:46;3.35;;;1.42;;
15502;SDS011;7853;52.186;5.948;2022-10-01T09:56:47;3.43;;;1.54;;
15502;SDS011;7853;52.186;5.948;2022-10-01T09:57:46;2.20;;;1.47;;
15502;SDS011;7853;52.186;5.948;2022-10-01T09:58:49;2.98;;;1.42;;
15502;SDS011;7853;52.186;5.948;2022-10-01T09:59:49;3.21;;;1.51;;
15502;SDS011;7853;52.186;5.948;2022-10-01T10:00:49;3.63;;;1.58;;
15502;SDS011;7853;52.186;5.948;2022-10-01T10:01:52;1.88;;;1.48;;
15502;SDS011;7853;52.186;5.948;2022-10-01T10:02:52;2.75;;;1.28;;
15502;SDS011;7853;52.186;5.948;2022-10-01T10:03:53;3.64;;;1.55;;
15502;SDS011;7853;52.186;5.948;2022-10-01T10:04:57;4.59;;;1.49;;
15502;SDS011;7853;52.186;5.948;2022-10-01T10:05:54;2.09;;;1.35;;
15502;SDS011;7853;52.186;5.948;2022-10-01T10:06:58;2.23;;;1.44;;
15502;SDS011;7853;52.186;5.948;2022-10-01T10:07:57;2.96;;;1.50;;
15502;SDS011;7853;52.186;5.948;2022-10-01T10:08:57;2.10;;;1.42;;
15502;SDS011;7853;52.186;5.948;2022-10-01T10:10:06;2.39;;;1.46;;
15502;SDS011;7853;52.186;5.948;2022-10-01T10:11:00;2.13;;;1.35;;
15502;SDS011;7853;52.186;5.948;2022-10-01T10:12:01;3.03;;;1.46;;
15502;SDS011;7853;52.186;5.948;2022-10-01T10:13:03;4.63;;;1.53;;
15502;SDS011;7853;52.186;5.948;2022-10-01T10:14:02;3.36;;;1.65;;
15502;SDS011;7853;52.186;5.948;2022-10-01T10:15:05;2.58;;;1.47;;
15502;SDS011;7853;52.186;5.948;2022-10-01T10:16:05;5.87;;;1.61;;
15502;SDS011;7853;52.186;5.948;2022-10-01T10:17:04;3.13;;;1.36;;
15502;SDS011;7853;52.186;5.948;2022-10-01T10:18:05;3.70;;;2.40;;
15502;SDS011;7853;52.186;5.948;2022-10-01T10:19:06;3.25;;;1.56;;
15502;SDS011;7853;52.186;5.948;2022-10-01T10:20:07;2.09;;;1.40;;
15502;SDS011;7853;52.186;5.948;2022-10-01T10:21:11;2.04;;;1.42;;
15502;SDS011;7853;52.186;5.948;2022-10-01T10:22:09;4.55;;;1.39;;
15502;SDS011;7853;52.186;5.948;2022-10-01T10:23:11;3.50;;;1.37;;
15502;SDS011;7853;52.186;5.948;2022-10-01T10:24:22;2.99;;;1.60;;
15502;SDS011;7853;52.186;5.948;2022-10-01T10:25:15;3.13;;;1.35;;
15502;SDS011;7853;52.186;5.948;2022-10-01T10:26:16;2.45;;;1.42;;
15502;SDS011;7853;52.186;5.948;2022-10-01T10:27:19;2.96;;;1.47;;
15502;SDS011;7853;52.186;5.948;2022-10-01T10:28:17;8.12;;;1.51;;
15502;SDS011;7853;52.186;5.948;2022-10-01T10:29:23;3.57;;;1.57;;
15502;SDS011;7853;52.186;5.948;2022-10-01T10:30:18;4.09;;;1.60;;
15502;SDS011;7853;52.186;5.948;2022-10-01T10:31:19;3.30;;;1.45;;
15502;SDS011;7853;52.186;5.948;2022-10-01T10:32:21;3.55;;;1.46;;
15502;SDS011;7853;52.186;5.948;2022-10-01T10:33:20;2.49;;;1.38;;
15502;SDS011;7853;52.186;5.948;2022-10-01T10:34:23;5.47;;;1.47;;
15502;SDS011;7853;52.186;5.948;2022-10-01T10:35:23;4.20;;;1.36;;
15502;SDS011;7853;52.186;5.948;2022-10-01T10:36:26;3.56;;;1.30;;
15502;SDS011;7853;52.186;5.948;2022-10-01T10:37:25;2.99;;;1.63;;
15502;SDS011;7853;52.186;5.948;2022-10-01T10:38:25;2.18;;;1.43;;
15502;SDS011;7853;52.186;5.948;2022-10-01T10:39:28;2.15;;;1.46;;
15502;SDS011;7853;52.186;5.948;2022-10-01T10:40:27;2.64;;;1.39;;
15502;SDS011;7853;52.186;5.948;2022-10-01T10:41:28;3.55;;;1.69;;
15502;SDS011;7853;52.186;5.948;2022-10-01T10:42:28;3.39;;;1.53;;
15502;SDS011;7853;52.186;5.948;2022-10-01T10:43:30;3.99;;;1.56;;
15502;SDS011;7853;52.186;5.948;2022-10-01T10:44:32;3.44;;;1.54;;
15502;SDS011;7853;52.186;5.948;2022-10-01T10:45:31;6.05;;;1.60;;
15502;SDS011;7853;52.186;5.948;2022-10-01T10:46:33;3.50;;;1.63;;
15502;SDS011;7853;52.186;5.948;2022-10-01T10:47:38;4.07;;;1.70;;
15502;SDS011;7853;52.186;5.948;2022-10-01T10:48:35;3.40;;;1.64;;
15502;SDS011;7853;52.186;5.948;2022-10-01T10:49:37;2.86;;;1.89;;
15502;SDS011;7853;52.186;5.948;2022-10-01T10:50:38;3.96;;;1.76;;
15502;SDS011;7853;52.186;5.948;2022-10-01T10:51:41;3.30;;;1.58;;
15502;SDS011;7853;52.186;5.948;2022-10-01T10:52:38;3.31;;;1.67;;
15502;SDS011;7853;52.186;5.948;2022-10-01T10:53:40;4.46;;;1.82;;
15502;SDS011;7853;52.186;5.948;2022-10-01T10:54:40;3.74;;;1.80;;
15502;SDS011;7853;52.186;5.948;2022-10-01T10:55:42;7.28;;;1.73;;
15502;SDS011;7853;52.186;5.948;2022-10-01T10:56:44;2.30;;;1.54;;
15502;SDS011;7853;52.186;5.948;2022-10-01T10:57:43;3.75;;;1.64;;
15502;SDS011;7853;52.186;5.948;2022-10-01T10:58:44;2.46;;;1.39;;
15502;SDS011;7853;52.186;5.948;2022-10-01T10:59:53;3.03;;;1.54;;
15502;SDS011;7853;52.186;5.948;2022-10-01T11:00:46;2.39;;;1.48;;
15502;SDS011;7853;52.186;5.948;2022-10-01T11:01:46;3.66;;;1.57;;
15502;SDS011;7853;52.186;5.948;2022-10-01T11:02:47;2.75;;;1.68;;
15502;SDS011;7853;52.186;5.948;2022-10-01T11:03:48;4.90;;;1.46;;
15502;SDS011;7853;52.186;5.948;2022-10-01T11:04:49;3.00;;;1.72;;
15502;SDS011;7853;52.186;5.948;2022-10-01T11:05:49;2.78;;;1.58;;
15502;SDS011;7853;52.186;5.948;2022-10-01T11:06:53;2.15;;;1.43;;
15502;SDS011;7853;52.186;5.948;2022-10-01T11:07:52;2.81;;;1.38;;
15502;SDS011;7853;52.186;5.948;2022-10-01T11:08:56;3.18;;;1.54;;
15502;SDS011;7853;52.186;5.948;2022-10-01T11:09:57;3.26;;;1.56;;
15502;SDS011;7853;52.186;5.948;2022-10-01T11:10:57;2.80;;;1.38;;
15502;SDS011;7853;52.186;5.948;2022-10-01T11:11:57;4.08;;;1.45;;
15502;SDS011;7853;52.186;5.948;2022-10-01T11:13:05;7.51;;;1.62;;
15502;SDS011;7853;52.186;5.948;2022-10-01T11:14:01;2.05;;;1.28;;
15502;SDS011;7853;52.186;5.948;2022-10-01T11:15:04;3.32;;;1.48;;
15502;SDS011;7853;52.186;5.948;2022-10-01T11:16:06;3.69;;;1.66;;
15502;SDS011;7853;52.186;5.948;2022-10-01T11:17:11;3.38;;;1.62;;
15502;SDS011;7853;52.186;5.948;2022-10-01T11:18:24;6.72;;;1.73;;
15502;SDS011;7853;52.186;5.948;2022-10-01T11:19:10;4.99;;;1.68;;
15502;SDS011;7853;52.186;5.948;2022-10-01T11:20:12;4.04;;;1.70;;
15502;SDS011;7853;52.186;5.948;2022-10-01T11:21:11;3.95;;;1.47;;
15502;SDS011;7853;52.186;5.948;2022-10-01T11:22:14;3.79;;;1.64;;
15502;SDS011;7853;52.186;5.948;2022-10-01T11:23:17;3.41;;;1.50;;
15502;SDS011;7853;52.186;5.948;2022-10-01T11:24:17;4.86;;;1.53;;
15502;SDS011;7853;52.186;5.948;2022-10-01T11:25:17;4.37;;;1.48;;
15502;SDS011;7853;52.186;5.948;2022-10-01T11:26:17;2.95;;;1.23;;
15502;SDS011;7853;52.186;5.948;2022-10-01T11:27:17;4.42;;;1.41;;
15502;SDS011;7853;52.186;5.948;2022-10-01T11:28:22;3.62;;;1.44;;
15502;SDS011;7853;52.186;5.948;2022-10-01T11:29:20;4.90;;;1.43;;
15502;SDS011;7853;52.186;5.948;2022-10-01T11:30:19;3.20;;;1.43;;
15502;SDS011;7853;52.186;5.948;2022-10-01T11:31:21;2.75;;;1.43;;
15502;SDS011;7853;52.186;5.948;2022-10-01T11:32:21;2.56;;;1.39;;
15502;SDS011;7853;52.186;5.948;2022-10-01T11:33:22;2.64;;;1.34;;
15502;SDS011;7853;52.186;5.948;2022-10-01T11:34:32;5.53;;;1.49;;
15502;SDS011;7853;52.186;5.948;2022-10-01T11:35:26;2.89;;;1.35;;
15502;SDS011;7853;52.186;5.948;2022-10-01T11:36:25;3.84;;;1.52;;
15502;SDS011;7853;52.186;5.948;2022-10-01T11:37:30;3.33;;;1.37;;
15502;SDS011;7853;52.186;5.948;2022-10-01T11:38:34;3.73;;;1.49;;
15502;SDS011;7853;52.186;5.948;2022-10-01T11:39:30;4.07;;;1.62;;
15502;SDS011;7853;52.186;5.948;2022-10-01T11:41:38;3.98;;;1.51;;
15502;SDS011;7853;52.186;5.948;2022-10-01T11:42:38;3.05;;;1.60;;
15502;SDS011;7853;52.186;5.948;2022-10-01T11:43:39;4.70;;;1.47;;
15502;SDS011;7853;52.186;5.948;2022-10-01T11:44:40;8.27;;;1.65;;
15502;SDS011;7853;52.186;5.948;2022-10-01T11:45:40;4.31;;;1.57;;
15502;SDS011;7853;52.186;5.948;2022-10-01T11:46:42;2.70;;;1.38;;
15502;SDS011;7853;52.186;5.948;2022-10-01T11:47:42;2.51;;;1.50;;
15502;SDS011;7853;52.186;5.948;2022-10-01T11:48:43;2.85;;;1.28;;
15502;SDS011;7853;52.186;5.948;2022-10-01T11:49:44;3.57;;;1.52;;
15502;SDS011;7853;52.186;5.948;2022-10-01T11:50:45;3.59;;;1.56;;
15502;SDS011;7853;52.186;5.948;2022-10-01T11:51:47;4.56;;;1.58;;
15502;SDS011;7853;52.186;5.948;2022-10-01T11:52:48;3.64;;;2.02;;
15502;SDS011;7853;52.186;5.948;2022-10-01T11:53:48;4.22;;;1.48;;
15502;SDS011;7853;52.186;5.948;2022-10-01T11:54:52;3.51;;;1.35;;
15502;SDS011;7853;52.186;5.948;2022-10-01T11:55:51;4.44;;;1.58;;
15502;SDS011;7853;52.186;5.948;2022-10-01T11:56:52;3.52;;;1.45;;
15502;SDS011;7853;52.186;5.948;2022-10-01T11:57:52;4.08;;;1.41;;
15502;SDS011;7853;52.186;5.948;2022-10-01T11:58:54;2.96;;;1.42;;
15502;SDS011;7853;52.186;5.948;2022-10-01T11:59:53;4.93;;;1.62;;
15502;SDS011;7853;52.186;5.948;2022-10-01T12:00:56;3.90;;;1.63;;
15502;SDS011;7853;52.186;5.948;2022-10-01T12:01:55;3.91;;;1.21;;
15502;SDS011;7853;52.186;5.948;2022-10-01T12:02:56;3.64;;;1.43;;
15502;SDS011;7853;52.186;5.948;2022-10-01T12:04:00;3.33;;;1.35;;
15502;SDS011;7853;52.186;5.948;2022-10-01T12:04:59;4.42;;;1.50;;
15502;SDS011;7853;52.186;5.948;2022-10-01T12:05:58;4.70;;;1.61;;
15502;SDS011;7853;52.186;5.948;2022-10-01T12:07:01;3.65;;;1.34;;
15502;SDS011;7853;52.186;5.948;2022-10-01T12:08:02;3.42;;;1.32;;
15502;SDS011;7853;52.186;5.948;2022-10-01T12:09:01;5.39;;;1.75;;
15502;SDS011;7853;52.186;5.948;2022-10-01T12:10:02;3.35;;;1.30;;
15502;SDS011;7853;52.186;5.948;2022-10-01T12:11:05;4.77;;;1.42;;
15502;SDS011;7853;52.186;5.948;2022-10-01T12:12:03;4.14;;;1.50;;
15502;SDS011;7853;52.186;5.948;2022-10-01T12:13:06;4.58;;;1.39;;
15502;SDS011;7853;52.186;5.948;2022-10-01T12:14:05;4.58;;;1.55;;
15502;SDS011;7853;52.186;5.948;2022-10-01T12:15:08;4.26;;;1.35;;
15502;SDS011;7853;52.186;5.948;2022-10-01T12:16:06;5.17;;;2.37;;
15502;SDS011;7853;52.186;5.948;2022-10-01T12:17:08;3.26;;;1.55;;
15502;SDS011;7853;52.186;5.948;2022-10-01T12:18:08;4.14;;;1.48;;
15502;SDS011;7853;52.186;5.948;2022-10-01T12:19:10;4.17;;;1.37;;
15502;SDS011;7853;52.186;5.948;2022-10-01T12:20:14;3.61;;;1.35;;
15502;SDS011;7853;52.186;5.948;2022-10-01T12:21:13;4.34;;;1.35;;
15502;SDS011;7853;52.186;5.948;2022-10-01T12:22:13;4.68;;;1.84;;
15502;SDS011;7853;52.186;5.948;2022-10-01T12:23:16;3.61;;;1.28;;
15502;SDS011;7853;52.186;5.948;2022-10-01T12:24:15;3.02;;;1.34;;
15502;SDS011;7853;52.186;5.948;2022-10-01T12:25:16;3.06;;;1.52;;
15502;SDS011;7853;52.186;5.948;2022-10-01T12:26:20;3.12;;;1.28;;
15502;SDS011;7853;52.186;5.948;2022-10-01T12:27:25;4.16;;;1.41;;
15502;SDS011;7853;52.186;5.948;2022-10-01T12:28:18;3.61;;;1.45;;
15502;SDS011;7853;52.186;5.948;2022-10-01T12:29:19;5.40;;;1.40;;
15502;SDS011;7853;52.186;5.948;2022-10-01T12:30:20;3.27;;;1.21;;
15502;SDS011;7853;52.186;5.948;2022-10-01T12:31:21;5.23;;;1.55;;
15502;SDS011;7853;52.186;5.948;2022-10-01T12:32:23;4.72;;;1.62;;
15502;SDS011;7853;52.186;5.948;2022-10-01T12:33:28;5.89;;;1.55;;
15502;SDS011;7853;52.186;5.948;2022-10-01T12:34:24;4.44;;;1.58;;
15502;SDS011;7853;52.186;5.948;2022-10-01T12:35:24;3.20;;;1.39;;
15502;SDS011;7853;52.186;5.948;2022-10-01T12:36:24;2.41;;;1.34;;
15502;SDS011;7853;52.186;5.948;2022-10-01T12:37:24;3.94;;;1.41;;
15502;SDS011;7853;52.186;5.948;2022-10-01T12:38:27;2.77;;;1.36;;
15502;SDS011;7853;52.186;5.948;2022-10-01T12:39:28;3.77;;;1.50;;
15502;SDS011;7853;52.186;5.948;2022-10-01T12:40:26;3.67;;;1.34;;
15502;SDS011;7853;52.186;5.948;2022-10-01T12:41:28;2.79;;;1.27;;
15502;SDS011;7853;52.186;5.948;2022-10-01T12:42:46;3.21;;;1.58;;
15502;SDS011;7853;52.186;5.948;2022-10-01T12:43:39;2.58;;;1.39;;
15502;SDS011;7853;52.186;5.948;2022-10-01T12:44:32;4.84;;;1.50;;
15502;SDS011;7853;52.186;5.948;2022-10-01T12:45:32;3.81;;;1.43;;
15502;SDS011;7853;52.186;5.948;2022-10-01T12:46:32;3.29;;;1.54;;
15502;SDS011;7853;52.186;5.948;2022-10-01T12:47:34;2.56;;;1.24;;
15502;SDS011;7853;52.186;5.948;2022-10-01T12:48:34;2.99;;;1.44;;
15502;SDS011;7853;52.186;5.948;2022-10-01T12:49:34;3.81;;;1.51;;
15502;SDS011;7853;52.186;5.948;2022-10-01T12:50:37;3.43;;;1.38;;
15502;SDS011;7853;52.186;5.948;2022-10-01T12:51:36;3.76;;;1.48;;
15502;SDS011;7853;52.186;5.948;2022-10-01T12:52:38;3.14;;;1.43;;
15502;SDS011;7853;52.186;5.948;2022-10-01T12:53:37;3.99;;;1.58;;
15502;SDS011;7853;52.186;5.948;2022-10-01T12:54:40;3.18;;;1.44;;
15502;SDS011;7853;52.186;5.948;2022-10-01T12:55:41;5.18;;;1.39;;
15502;SDS011;7853;52.186;5.948;2022-10-01T12:56:37;4.11;;;1.53;;
15502;SDS011;7853;52.186;5.948;2022-10-01T12:57:40;3.69;;;1.61;;
15502;SDS011;7853;52.186;5.948;2022-10-01T12:58:45;3.92;;;1.42;;
15502;SDS011;7853;52.186;5.948;2022-10-01T12:59:42;2.67;;;1.39;;
15502;SDS011;7853;52.186;5.948;2022-10-01T13:00:42;4.96;;;1.48;;
15502;SDS011;7853;52.186;5.948;2022-10-01T13:01:45;7.09;;;1.63;;
15502;SDS011;7853;52.186;5.948;2022-10-01T13:03:51;4.26;;;1.37;;
15502;SDS011;7853;52.186;5.948;2022-10-01T13:43:13;7.09;;;1.70;;
15502;SDS011;7853;52.186;5.948;2022-10-01T13:44:17;10.08;;;1.86;;
15502;SDS011;7853;52.186;5.948;2022-10-01T13:45:20;7.37;;;1.99;;
15502;SDS011;7853;52.186;5.948;2022-10-01T13:46:13;7.56;;;2.40;;
15502;SDS011;7853;52.186;5.948;2022-10-01T13:47:16;8.38;;;2.19;;
15502;SDS011;7853;52.186;5.948;2022-10-01T13:48:16;8.48;;;2.05;;
15502;SDS011;7853;52.186;5.948;2022-10-01T13:49:16;11.50;;;2.38;;
15502;SDS011;7853;52.186;5.948;2022-10-01T13:50:18;8.30;;;1.92;;
15502;SDS011;7853;52.186;5.948;2022-10-01T13:51:16;9.58;;;2.16;;
15502;SDS011;7853;52.186;5.948;2022-10-01T13:52:17;8.23;;;1.75;;
15502;SDS011;7853;52.186;5.948;2022-10-01T13:53:19;7.73;;;1.58;;
15502;SDS011;7853;52.186;5.948;2022-10-01T13:54:21;7.09;;;1.64;;
15502;SDS011;7853;52.186;5.948;2022-10-01T13:55:23;6.79;;;1.71;;
15502;SDS011;7853;52.186;5.948;2022-10-01T13:56:28;8.20;;;2.04;;
15502;SDS011;7853;52.186;5.948;2022-10-01T13:57:25;7.21;;;1.81;;
15502;SDS011;7853;52.186;5.948;2022-10-01T13:58:21;8.29;;;2.60;;
15502;SDS011;7853;52.186;5.948;2022-10-01T13:59:26;6.96;;;1.78;;
15502;SDS011;7853;52.186;5.948;2022-10-01T14:00:22;8.28;;;1.76;;
15502;SDS011;7853;52.186;5.948;2022-10-01T14:01:25;8.55;;;1.95;;
15502;SDS011;7853;52.186;5.948;2022-10-01T14:02:27;8.53;;;2.05;;
15502;SDS011;7853;52.186;5.948;2022-10-01T14:03:26;7.44;;;2.68;;
15502;SDS011;7853;52.186;5.948;2022-10-01T14:04:28;9.91;;;2.00;;
15502;SDS011;7853;52.186;5.948;2022-10-01T14:05:28;6.41;;;2.04;;
15502;SDS011;7853;52.186;5.948;2022-10-01T14:06:27;10.82;;;2.21;;
15502;SDS011;7853;52.186;5.948;2022-10-01T14:07:29;6.80;;;2.02;;
15502;SDS011;7853;52.186;5.948;2022-10-01T14:08:30;9.95;;;2.03;;
15502;SDS011;7853;52.186;5.948;2022-10-01T14:09:30;8.66;;;1.89;;
15502;SDS011;7853;52.186;5.948;2022-10-01T14:10:30;8.29;;;2.58;;
15502;SDS011;7853;52.186;5.948;2022-10-01T14:11:31;9.27;;;1.87;;
15502;SDS011;7853;52.186;5.948;2022-10-01T14:12:32;8.97;;;2.32;;
15502;SDS011;7853;52.186;5.948;2022-10-01T14:13:32;8.72;;;1.73;;
15502;SDS011;7853;52.186;5.948;2022-10-01T14:14:34;10.62;;;2.15;;
15502;SDS011;7853;52.186;5.948;2022-10-01T14:15:37;9.65;;;2.10;;
15502;SDS011;7853;52.186;5.948;2022-10-01T14:16:36;8.19;;;2.09;;
15502;SDS011;7853;52.186;5.948;2022-10-01T14:17:35;9.25;;;1.88;;
15502;SDS011;7853;52.186;5.948;2022-10-01T14:18:37;10.12;;;2.43;;
15502;SDS011;7853;52.186;5.948;2022-10-01T14:19:43;7.24;;;2.10;;
15502;SDS011;7853;52.186;5.948;2022-10-01T14:20:44;11.46;;;2.12;;
15502;SDS011;7853;52.186;5.948;2022-10-01T14:21:42;7.15;;;1.88;;
15502;SDS011;7853;52.186;5.948;2022-10-01T14:22:43;7.52;;;1.73;;
15502;SDS011;7853;52.186;5.948;2022-10-01T14:23:41;8.54;;;1.74;;
15502;SDS011;7853;52.186;5.948;2022-10-01T14:24:44;8.70;;;2.07;;
15502;SDS011;7853;52.186;5.948;2022-10-01T14:25:42;6.69;;;1.53;;
15502;SDS011;7853;52.186;5.948;2022-10-01T14:26:42;7.91;;;1.77;;
15502;SDS011;7853;52.186;5.948;2022-10-01T14:27:42;9.90;;;2.49;;
15502;SDS011;7853;52.186;5.948;2022-10-01T14:28:44;9.70;;;2.07;;
15502;SDS011;7853;52.186;5.948;2022-10-01T14:29:45;8.72;;;2.01;;
15502;SDS011;7853;52.186;5.948;2022-10-01T14:30:44;8.36;;;1.92;;
15502;SDS011;7853;52.186;5.948;2022-10-01T14:31:45;5.81;;;1.81;;
15502;SDS011;7853;52.186;5.948;2022-10-01T14:32:47;10.50;;;2.45;;
15502;SDS011;7853;52.186;5.948;2022-10-01T14:34:02;11.56;;;1.97;;
15502;SDS011;7853;52.186;5.948;2022-10-01T14:34:46;9.48;;;2.16;;
15502;SDS011;7853;52.186;5.948;2022-10-01T14:35:44;9.11;;;1.84;;
15502;SDS011;7853;52.186;5.948;2022-10-01T14:36:46;7.23;;;1.70;;
15502;SDS011;7853;52.186;5.948;2022-10-01T14:37:45;6.65;;;1.94;;
15502;SDS011;7853;52.186;5.948;2022-10-01T14:38:46;6.56;;;1.87;;
15502;SDS011;7853;52.186;5.948;2022-10-01T14:39:58;9.24;;;2.26;;
15502;SDS011;7853;52.186;5.948;2022-10-01T14:40:48;9.75;;;2.61;;
15502;SDS011;7853;52.186;5.948;2022-10-01T14:41:50;8.37;;;2.36;;
15502;SDS011;7853;52.186;5.948;2022-10-01T14:42:55;13.40;;;2.70;;
15502;SDS011;7853;52.186;5.948;2022-10-01T14:43:52;8.61;;;2.30;;
15502;SDS011;7853;52.186;5.948;2022-10-01T14:44:53;9.61;;;2.41;;
15502;SDS011;7853;52.186;5.948;2022-10-01T14:45:55;10.03;;;2.00;;
15502;SDS011;7853;52.186;5.948;2022-10-01T14:46:55;7.88;;;1.78;;
15502;SDS011;7853;52.186;5.948;2022-10-01T14:47:58;11.14;;;2.05;;
15502;SDS011;7853;52.186;5.948;2022-10-01T14:48:56;8.28;;;1.85;;
15502;SDS011;7853;52.186;5.948;2022-10-01T14:49:57;8.05;;;2.05;;
15502;SDS011;7853;52.186;5.948;2022-10-01T14:50:58;11.89;;;2.32;;
15502;SDS011;7853;52.186;5.948;2022-10-01T14:51:58;7.25;;;2.05;;
15502;SDS011;7853;52.186;5.948;2022-10-01T14:52:58;9.59;;;2.29;;
15502;SDS011;7853;52.186;5.948;2022-10-01T14:53:59;10.16;;;2.34;;
15502;SDS011;7853;52.186;5.948;2022-10-01T14:55:00;6.91;;;1.90;;
15502;SDS011;7853;52.186;5.948;2022-10-01T14:56:03;7.27;;;1.70;;
15502;SDS011;7853;52.186;5.948;2022-10-01T14:57:01;7.73;;;2.18;;
15502;SDS011;7853;52.186;5.948;2022-10-01T14:58:02;10.72;;;2.33;;
15502;SDS011;7853;52.186;5.948;2022-10-01T14:59:02;7.59;;;2.62;;
15502;SDS011;7853;52.186;5.948;2022-10-01T15:00:05;6.18;;;1.87;;
15502;SDS011;7853;52.186;5.948;2022-10-01T15:01:03;8.60;;;2.40;;
15502;SDS011;7853;52.186;5.948;2022-10-01T15:02:11;6.95;;;2.01;;
15502;SDS011;7853;52.186;5.948;2022-10-01T15:03:08;9.08;;;1.95;;
15502;SDS011;7853;52.186;5.948;2022-10-01T15:04:12;8.65;;;1.97;;
15502;SDS011;7853;52.186;5.948;2022-10-01T15:05:10;8.55;;;2.41;;
15502;SDS011;7853;52.186;5.948;2022-10-01T15:06:09;9.74;;;2.24;;
15502;SDS011;7853;52.186;5.948;2022-10-01T15:07:09;9.61;;;2.16;;
15502;SDS011;7853;52.186;5.948;2022-10-01T15:08:10;11.03;;;2.02;;
15502;SDS011;7853;52.186;5.948;2022-10-01T15:09:11;7.78;;;1.99;;
15502;SDS011;7853;52.186;5.948;2022-10-01T15:10:11;8.05;;;2.39;;
15502;SDS011;7853;52.186;5.948;2022-10-01T15:11:12;6.80;;;1.84;;
15502;SDS011;7853;52.186;5.948;2022-10-01T15:12:12;10.35;;;1.81;;
15502;SDS011;7853;52.186;5.948;2022-10-01T15:13:16;9.82;;;2.28;;
15502;SDS011;7853;52.186;5.948;2022-10-01T15:14:13;11.01;;;2.30;;
15502;SDS011;7853;52.186;5.948;2022-10-01T15:15:15;7.95;;;2.42;;
15502;SDS011;7853;52.186;5.948;2022-10-01T15:16:15;7.17;;;1.99;;
15502;SDS011;7853;52.186;5.948;2022-10-01T15:17:17;8.16;;;2.30;;
15502;SDS011;7853;52.186;5.948;2022-10-01T15:18:15;9.64;;;2.10;;
15502;SDS011;7853;52.186;5.948;2022-10-01T15:19:18;11.31;;;2.80;;
15502;SDS011;7853;52.186;5.948;2022-10-01T15:20:18;7.68;;;1.91;;
15502;SDS011;7853;52.186;5.948;2022-10-01T15:21:19;5.93;;;1.82;;
15502;SDS011;7853;52.186;5.948;2022-10-01T15:22:20;7.14;;;1.77;;
15502;SDS011;7853;52.186;5.948;2022-10-01T15:23:21;9.71;;;2.12;;
15502;SDS011;7853;52.186;5.948;2022-10-01T15:24:22;10.11;;;2.54;;
15502;SDS011;7853;52.186;5.948;2022-10-01T15:25:23;8.56;;;2.25;;
15502;SDS011;7853;52.186;5.948;2022-10-01T15:26:23;8.87;;;2.12;;
15502;SDS011;7853;52.186;5.948;2022-10-01T15:27:23;7.27;;;2.30;;
15502;SDS011;7853;52.186;5.948;2022-10-01T15:28:26;8.41;;;1.81;;
15502;SDS011;7853;52.186;5.948;2022-10-01T15:29:26;8.22;;;1.88;;
15502;SDS011;7853;52.186;5.948;2022-10-01T15:30:26;6.81;;;1.84;;
15502;SDS011;7853;52.186;5.948;2022-10-01T15:31:27;8.39;;;2.21;;
15502;SDS011;7853;52.186;5.948;2022-10-01T15:32:28;7.33;;;2.10;;
15502;SDS011;7853;52.186;5.948;2022-10-01T15:33:29;6.98;;;1.96;;
15502;SDS011;7853;52.186;5.948;2022-10-01T15:34:29;8.94;;;2.24;;
15502;SDS011;7853;52.186;5.948;2022-10-01T15:35:30;7.88;;;2.34;;
15502;SDS011;7853;52.186;5.948;2022-10-01T15:36:31;10.19;;;2.35;;
15502;SDS011;7853;52.186;5.948;2022-10-01T15:37:33;8.05;;;1.81;;
15502;SDS011;7853;52.186;5.948;2022-10-01T15:38:33;9.80;;;1.99;;
15502;SDS011;7853;52.186;5.948;2022-10-01T15:39:35;8.03;;;2.42;;
15502;SDS011;7853;52.186;5.948;2022-10-01T15:40:35;10.84;;;1.94;;
15502;SDS011;7853;52.186;5.948;2022-10-01T15:41:36;8.08;;;2.47;;
15502;SDS011;7853;52.186;5.948;2022-10-01T15:42:37;7.39;;;2.23;;
15502;SDS011;7853;52.186;5.948;2022-10-01T15:43:37;8.03;;;2.32;;
15502;SDS011;7853;52.186;5.948;2022-10-01T15:44:40;9.99;;;2.78;;
15502;SDS011;7853;52.186;5.948;2022-10-01T15:45:39;10.04;;;2.42;;
15502;SDS011;7853;52.186;5.948;2022-10-01T15:46:40;8.65;;;2.26;;
15502;SDS011;7853;52.186;5.948;2022-10-01T15:47:46;8.30;;;2.17;;
15502;SDS011;7853;52.186;5.948;2022-10-01T15:48:41;13.05;;;2.64;;
15502;SDS011;7853;52.186;5.948;2022-10-01T15:49:42;11.59;;;2.97;;
15502;SDS011;7853;52.186;5.948;2022-10-01T15:50:42;11.01;;;2.62;;
15502;SDS011;7853;52.186;5.948;2022-10-01T15:51:43;8.25;;;2.84;;
15502;SDS011;7853;52.186;5.948;2022-10-01T15:52:45;8.87;;;2.65;;
15502;SDS011;7853;52.186;5.948;2022-10-01T15:53:45;9.66;;;2.43;;
15502;SDS011;7853;52.186;5.948;2022-10-01T15:54:46;11.03;;;2.66;;
15502;SDS011;7853;52.186;5.948;2022-10-01T15:55:48;10.51;;;2.45;;
15502;SDS011;7853;52.186;5.948;2022-10-01T15:56:47;9.51;;;2.60;;
15502;SDS011;7853;52.186;5.948;2022-10-01T15:57:48;10.49;;;2.98;;
15502;SDS011;7853;52.186;5.948;2022-10-01T15:58:48;12.27;;;3.65;;
15502;SDS011;7853;52.186;5.948;2022-10-01T15:59:50;9.40;;;2.63;;
15502;SDS011;7853;52.186;5.948;2022-10-01T16:00:52;11.83;;;2.81;;
15502;SDS011;7853;52.186;5.948;2022-10-01T16:01:51;10.84;;;2.88;;
15502;SDS011;7853;52.186;5.948;2022-10-01T16:02:52;10.05;;;2.96;;
15502;SDS011;7853;52.186;5.948;2022-10-01T16:03:53;9.01;;;3.25;;
15502;SDS011;7853;52.186;5.948;2022-10-01T16:04:53;9.87;;;2.97;;
15502;SDS011;7853;52.186;5.948;2022-10-01T16:05:54;10.33;;;2.41;;
15502;SDS011;7853;52.186;5.948;2022-10-01T16:06:54;9.06;;;2.41;;
15502;SDS011;7853;52.186;5.948;2022-10-01T16:07:55;9.24;;;3.14;;
15502;SDS011;7853;52.186;5.948;2022-10-01T16:09:00;9.37;;;2.83;;